EW5676 Stony Brook NY US current weather conditions

sailwx.info

Wind from 178 at 6 knots gusting 14

Air temperature 5.6° C
Dewpoint -0.5° C

Last reported at 2019-Dec-06 17:05 UTC.
Time now 2019-Dec-06 18:00 UTC

Location: N 40°48' W 073°06'.
View on Google Maps.

See reports from other nearby stations

  
Tides and Currents Weather Stations Pressure Air Temp Water Temp Dewpoint Dewpoint Depression Visibility Wind Speed Wind Dir Waves Ship Positions
date/time (UTC)wind fromknots sea level pressurealtimeterstation pressurevisibilityair tempwater tempwave heightnotes
2019-Dec-06 17:05 178 6 gusting 14 5.6
2019-Dec-06 16:56 183 7 gusting 13 5.6
2019-Dec-06 16:47 173 6 gusting 11 5.6
2019-Dec-06 16:38 188 6 gusting 12 5.6
2019-Dec-06 16:29 201 6 gusting 12 5.6
2019-Dec-06 16:20 189 6 gusting 12 5.6
2019-Dec-06 16:11 185 6 gusting 11 5.6
2019-Dec-06 16:02 187 7 gusting 13 5.0
2019-Dec-06 15:53 181 6 gusting 12 5.0
2019-Dec-06 15:44 179 5 gusting 10 5.0
2019-Dec-06 15:35 200 6 gusting 13 4.4
2019-Dec-06 15:26 188 8 gusting 15 4.4
2019-Dec-06 15:17 169 5 gusting 12 4.4
2019-Dec-06 15:08 196 5 gusting 9 4.4
2019-Dec-06 14:59 174 5 gusting 9 3.9
2019-Dec-06 14:50 190 4 gusting 7 3.9
2019-Dec-06 14:41 205 5 gusting 10 3.3
2019-Dec-06 14:32 201 5 gusting 12 3.3
2019-Dec-06 14:23 201 3 gusting 6 2.8
2019-Dec-06 14:14 174 2 gusting 6 2.2
2019-Dec-06 14:05 157 2 gusting 5 2.2
2019-Dec-06 13:56 154 4 gusting 6 1.7
2019-Dec-06 13:47 157 3 gusting 6 1.1
2019-Dec-06 13:38 149 2 gusting 5 1.1
2019-Dec-06 13:29 156 0 gusting 2 1.1
2019-Dec-06 13:20 155 0 gusting 2 0.6
2019-Dec-06 13:11 161 0.6
2019-Dec-06 13:02 0.6
2019-Dec-06 12:53 265 10 gusting 15 1.7
2019-Dec-06 12:44 265 10 gusting 15 1.7
2019-Dec-06 12:35 265 10 gusting 15 1.7
2019-Dec-06 12:26 265 10 gusting 15 1.7
2019-Dec-06 12:17 265 10 gusting 15 1.7
2019-Dec-06 12:08 265 10 gusting 15 1.7
2019-Dec-06 11:59 265 10 gusting 15 1.7
2019-Dec-06 11:50 265 10 gusting 15 1.7
2019-Dec-06 11:41 265 10 gusting 15 1.7
2019-Dec-06 11:32 265 10 gusting 15 1.7
2019-Dec-06 11:23 265 10 gusting 15 1.7
2019-Dec-06 11:14 265 10 gusting 15 1.7
2019-Dec-06 11:05 265 10 gusting 15 1.7
2019-Dec-06 10:56 265 10 gusting 15 1.7
2019-Dec-06 10:47 265 10 gusting 15 1.7
2019-Dec-06 10:38 265 10 gusting 15 1.7
2019-Dec-06 10:29 265 10 gusting 15 1.7
2019-Dec-06 10:20 265 10 gusting 15 1.7
2019-Dec-06 10:11 265 10 gusting 15 1.7
2019-Dec-06 10:02 265 10 gusting 15 1.7
2019-Dec-06 09:53 265 10 gusting 15 1.7
2019-Dec-06 09:44 265 10 gusting 15 1.7
2019-Dec-06 09:35 265 10 gusting 15 1.7
2019-Dec-06 09:26 265 10 gusting 15 1.7
2019-Dec-06 09:17 265 10 gusting 15 1.7
2019-Dec-06 09:08 265 10 gusting 15 1.7
2019-Dec-06 08:59 265 10 gusting 15 1.7
2019-Dec-06 08:50 265 10 gusting 15 1.7
2019-Dec-06 08:41 265 10 gusting 15 1.7
2019-Dec-06 08:32 265 10 gusting 15 1.7
2019-Dec-06 08:23 265 10 gusting 15 1.7
2019-Dec-06 08:14 265 10 gusting 15 1.7
2019-Dec-06 08:05 265 10 gusting 15 1.7
2019-Dec-06 07:56 265 10 gusting 15 1.7
2019-Dec-06 07:47 265 10 gusting 15 1.7
2019-Dec-06 07:38 265 10 gusting 15 1.7
2019-Dec-06 07:29 265 10 gusting 15 1.7
2019-Dec-06 07:20 265 10 gusting 15 1.7
2019-Dec-06 07:11 265 10 gusting 15 1.7
2019-Dec-06 07:02 265 10 gusting 15 1.7
2019-Dec-06 06:53 265 10 gusting 15 1.7
2019-Dec-06 06:44 265 10 gusting 15 1.7
2019-Dec-06 06:35 265 10 gusting 15 1.7
2019-Dec-06 06:26 265 10 gusting 15 1.7
2019-Dec-06 06:17 265 10 gusting 15 1.7
2019-Dec-06 06:08 265 10 gusting 15 1.7
2019-Dec-06 05:59 265 10 gusting 15 1.7
2019-Dec-06 05:50 270 11 gusting 17 1.7
2019-Dec-06 05:41 271 12 gusting 19 1.7
2019-Dec-06 05:32 269 9 gusting 16 1.7
2019-Dec-06 05:23 270 10 gusting 16 1.7
2019-Dec-06 05:14 275 10 gusting 16 1.7
2019-Dec-06 05:05 270 9 gusting 18 1.7
2019-Dec-06 04:56 268 9 gusting 17 1.7
2019-Dec-06 04:47 274 8 gusting 17 2.2
2019-Dec-06 04:38 273 9 gusting 17 2.2
2019-Dec-06 04:29 273 10 gusting 17 2.2
2019-Dec-06 04:20 272 10 gusting 20 2.2
2019-Dec-06 04:11 266 11 gusting 20 2.2
2019-Dec-06 04:02 267 10 gusting 21 2.2
2019-Dec-06 03:53 268 10 gusting 17 2.2
2019-Dec-06 03:44 270 12 gusting 21 2.2
2019-Dec-06 03:35 270 13 gusting 21 2.2
2019-Dec-06 03:26 270 13 gusting 21 2.2
2019-Dec-06 03:17 270 13 gusting 26 2.2
2019-Dec-06 03:08 272 13 gusting 24 2.2
2019-Dec-06 02:59 268 10 gusting 19 2.2
2019-Dec-06 02:50 271 9 gusting 15 2.2
2019-Dec-06 02:41 266 12 gusting 24 2.2
2019-Dec-06 02:32 270 10 gusting 19 2.2
2019-Dec-06 02:23 267 10 gusting 23 2.8
2019-Dec-06 02:14 266 10 gusting 19 2.8
2019-Dec-06 02:05 265 10 gusting 19 2.8
2019-Dec-06 01:56 266 8 gusting 18 2.2
2019-Dec-06 01:47 263 8 gusting 13 2.2
2019-Dec-06 01:38 271 9 gusting 17 2.2
2019-Dec-06 01:29 270 11 gusting 19 2.8
2019-Dec-06 01:20 264 11 gusting 24 2.8
2019-Dec-06 01:11 270 12 gusting 23 2.8
2019-Dec-06 01:02 271 13 gusting 22 2.8
2019-Dec-06 00:53 267 11 gusting 20 2.8
2019-Dec-06 00:44 267 12 gusting 19 3.3
2019-Dec-06 00:35 266 8 gusting 19 3.3
2019-Dec-06 00:26 273 9 gusting 15 3.3
2019-Dec-06 00:17 274 9 gusting 20 3.3
2019-Dec-06 00:08 272 10 gusting 20 3.3
2019-Dec-05 23:59 270 8 gusting 16 3.3
2019-Dec-05 23:50 274 9 gusting 16 3.3
2019-Dec-05 23:41 269 8 gusting 15 3.3
2019-Dec-05 23:32 266 10 gusting 18 3.3
2019-Dec-05 23:23 267 9 gusting 17 3.3
2019-Dec-05 23:14 269 11 gusting 19 3.3
2019-Dec-05 23:05 270 11 gusting 23 3.3
2019-Dec-05 22:56 270 11 gusting 18 3.3
2019-Dec-05 22:47 269 12 gusting 20 3.3
2019-Dec-05 22:38 266 7 gusting 20 2.8
2019-Dec-05 22:29 265 7 gusting 13 2.8
2019-Dec-05 22:20 267 6 gusting 12 2.8
2019-Dec-05 22:11 269 9 gusting 14 2.8
2019-Dec-05 22:02 269 8 gusting 15 3.3
2019-Dec-05 21:53 279 10 gusting 17 3.3
2019-Dec-05 21:44 273 10 gusting 19 3.3
2019-Dec-05 21:35 278 11 gusting 19 3.9
2019-Dec-05 21:26 274 12 gusting 19 3.9
2019-Dec-05 21:17 267 12 gusting 20 3.9
2019-Dec-05 21:08 267 13 gusting 21 3.9
2019-Dec-05 20:59 267 11 gusting 19 3.9
2019-Dec-05 20:50 267 12 gusting 22 3.9
2019-Dec-05 20:41 264 10 gusting 19 3.9
2019-Dec-05 20:32 271 11 gusting 20 3.9
2019-Dec-05 20:23 270 9 gusting 15 3.9
2019-Dec-05 20:14 261 11 gusting 19 4.4
2019-Dec-05 20:05 267 11 gusting 19 4.4
2019-Dec-05 19:56 270 10 gusting 19 4.4
2019-Dec-05 19:47 268 10 gusting 21 4.4
2019-Dec-05 19:38 274 9 gusting 17 4.4
2019-Dec-05 19:29 273 9 gusting 17 4.4
2019-Dec-05 19:20 276 12 gusting 21 4.4
2019-Dec-05 19:11 278 12 gusting 24 5.0
2019-Dec-05 19:02 272 13 gusting 20 4.4
2019-Dec-05 18:53 270 10 gusting 17 5.0
2019-Dec-05 18:44 271 11 gusting 18 5.0
2019-Dec-05 18:35 273 12 gusting 19 5.0
2019-Dec-05 18:26 273 11 gusting 22 5.0
2019-Dec-05 18:17 273 12 gusting 24 4.4
2019-Dec-05 18:08 277 13 gusting 23 4.4
2019-Dec-05 17:59 269 12 gusting 25 4.4
2019-Dec-05 17:50 272 11 gusting 19 4.4
2019-Dec-05 17:41 272 12 gusting 20 4.4
2019-Dec-05 17:32 272 12 gusting 20 4.4
2019-Dec-05 17:23 270 15 gusting 25 4.4
2019-Dec-05 17:14 264 11 gusting 26 5.0
2019-Dec-05 17:05 266 11 gusting 19 5.0
2019-Dec-05 16:56 269 10 gusting 19 5.0
2019-Dec-05 16:47 268 12 gusting 24 5.0
2019-Dec-05 16:38 270 12 gusting 19 5.0
2019-Dec-05 16:29 265 13 gusting 23 5.0
2019-Dec-05 16:20 269 11 gusting 20 5.0
2019-Dec-05 16:11 267 13 gusting 19 5.0
2019-Dec-05 16:02 268 13 gusting 21 5.0
2019-Dec-05 15:53 268 12 gusting 21 5.0
2019-Dec-05 15:44 264 11 gusting 24 5.0
2019-Dec-05 15:35 265 14 gusting 24 4.4
2019-Dec-05 15:26 268 10 gusting 22 5.0
2019-Dec-05 15:17 262 10 gusting 20 5.0
2019-Dec-05 15:08 260 11 gusting 20 5.0
2019-Dec-05 14:59 259 11 gusting 19 5.0
2019-Dec-05 14:50 264 9 gusting 18 5.0
2019-Dec-05 14:41 258 9 gusting 18 4.4
2019-Dec-05 14:32 263 7 gusting 13 4.4
2019-Dec-05 14:23 266 8 gusting 17 4.4
2019-Dec-05 14:14 265 10 gusting 18 4.4
2019-Dec-05 14:05 266 9 gusting 16 4.4
2019-Dec-05 13:56 266 8 gusting 17 4.4
2019-Dec-05 13:47 260 8 gusting 15 3.9
2019-Dec-05 13:38 265 8 gusting 17 3.9
2019-Dec-05 13:29 267 6 gusting 10 3.9
2019-Dec-05 13:20 264 8 gusting 14 3.9
2019-Dec-05 13:11 265 5 gusting 11 3.3
2019-Dec-05 13:02 260 5 gusting 10 3.3
2019-Dec-05 12:53 252 4 gusting 10 2.8
2019-Dec-05 12:44 224 1 gusting 3 2.8
2019-Dec-05 12:35 224 1 gusting 3 1.7
2019-Dec-05 12:26 224 1 gusting 3 1.7
2019-Dec-05 12:17 224 1 gusting 3 1.7
2019-Dec-05 12:08 224 1 gusting 3 1.7
2019-Dec-05 11:59 224 1 gusting 3 1.7
2019-Dec-05 11:50 224 1 gusting 3 1.7
2019-Dec-05 11:41 224 1 gusting 3 1.7
2019-Dec-05 11:32 224 1 gusting 3 1.7
2019-Dec-05 11:23 224 1 gusting 3 1.7
2019-Dec-05 11:14 224 1 gusting 3 1.7
2019-Dec-05 11:05 224 1 gusting 3 1.7
2019-Dec-05 10:56 224 1 gusting 3 1.7
2019-Dec-05 10:47 224 1 gusting 3 1.7
2019-Dec-05 10:38 224 1 gusting 3 1.7
2019-Dec-05 10:29 224 1 gusting 3 1.7
2019-Dec-05 10:20 224 1 gusting 3 1.7
2019-Dec-05 10:11 224 1 gusting 3 1.7
2019-Dec-05 10:02 224 1 gusting 3 1.7
2019-Dec-05 09:53 224 1 gusting 3 1.7
2019-Dec-05 09:44 224 1 gusting 3 1.7
2019-Dec-05 09:35 224 1 gusting 3 1.7
2019-Dec-05 09:26 224 1 gusting 3 1.7
2019-Dec-05 09:17 224 1 gusting 3 1.7
2019-Dec-05 09:08 224 1 gusting 3 1.7
2019-Dec-05 08:59 224 1 gusting 3 1.7
2019-Dec-05 08:50 224 1 gusting 3 1.7
2019-Dec-05 08:41 224 1 gusting 3 1.7
2019-Dec-05 08:32 224 1 gusting 3 1.7
2019-Dec-05 08:23 224 1 gusting 3 1.7
2019-Dec-05 08:14 224 1 gusting 3 1.7
2019-Dec-05 08:05 224 1 gusting 3 1.7
2019-Dec-05 07:56 224 1 gusting 3 1.7
2019-Dec-05 07:47 224 1 gusting 3 1.7
2019-Dec-05 07:38 224 1 gusting 3 1.7
2019-Dec-05 07:29 224 1 gusting 3 1.7
2019-Dec-05 07:20 224 1 gusting 3 1.7
2019-Dec-05 07:11 224 1 gusting 3 1.7
2019-Dec-05 07:02 224 1 gusting 3 1.7
2019-Dec-05 06:53 224 1 gusting 3 1.7
2019-Dec-05 06:44 224 1 gusting 3 1.7
2019-Dec-05 06:35 224 1 gusting 3 1.7
2019-Dec-05 06:26 224 1 gusting 3 1.7
2019-Dec-05 06:17 224 1 gusting 3 1.7
2019-Dec-05 06:08 224 1 gusting 3 1.7
2019-Dec-05 05:59 224 1 gusting 3 1.7
2019-Dec-05 05:50 224 1 gusting 3 1.7
2019-Dec-05 05:41 224 1 gusting 3 1.7
2019-Dec-05 05:32 224 1 gusting 3 1.7
2019-Dec-05 05:23 224 1 gusting 3 1.7
2019-Dec-05 05:14 224 1 gusting 3 1.7
2019-Dec-05 05:05 235 0 gusting 3 1.7
2019-Dec-05 04:56 226 0 gusting 3 1.7
2019-Dec-05 04:47 228 0 gusting 2 1.7
2019-Dec-05 04:38 226 1.7
2019-Dec-05 04:29 227 1.7
2019-Dec-05 04:20 248 1.7
2019-Dec-05 04:11 244 1.7
2019-Dec-05 04:02 240 1.1
2019-Dec-05 03:53 245 1.1
2019-Dec-05 03:44 243 1.1
2019-Dec-05 03:35 243 1.1
2019-Dec-05 03:26 243 1.7
2019-Dec-05 03:17 234 1.7
2019-Dec-05 03:08 238 1.7
2019-Dec-05 02:59 238 1.7
2019-Dec-05 02:50 246 0 gusting 2 1.7
2019-Dec-05 02:41 238 0 gusting 2 1.7
2019-Dec-05 02:32 235 1.7
2019-Dec-05 02:23 233 0 gusting 1 1.7
2019-Dec-05 02:14 225 0 gusting 2 1.7
2019-Dec-05 02:05 227 1.7
2019-Dec-05 01:56 236 0 gusting 3 1.7
2019-Dec-05 01:47 240 0 gusting 2 1.7
2019-Dec-05 01:38 237 1.7
2019-Dec-05 01:29 222 0 gusting 2 1.7
2019-Dec-05 01:20 220 0 gusting 2 2.2
2019-Dec-05 01:11 223 0 gusting 2 2.2
2019-Dec-05 01:02 234 2.2
2019-Dec-05 00:53 241 2.2
2019-Dec-05 00:44 243 0 gusting 2 2.2
2019-Dec-05 00:35 232 2.2
2019-Dec-05 00:26 223 0 gusting 2 2.2
2019-Dec-05 00:17 199 2.2
2019-Dec-05 00:08 229 1 gusting 5 2.8
2019-Dec-04 23:59 244 1 gusting 5 2.8
2019-Dec-04 23:50 251 2 gusting 5 2.8
2019-Dec-04 23:41 257 3 gusting 6 2.8
2019-Dec-04 23:32 260 1 gusting 3 2.2
2019-Dec-04 23:23 246 0 gusting 4 2.2
2019-Dec-04 23:14 268 0 gusting 2 2.2
2019-Dec-04 23:05 261 0 gusting 3 2.8
2019-Dec-04 22:56 248 1 gusting 4 2.8
2019-Dec-04 22:47 238 1 gusting 4 2.8
2019-Dec-04 22:38 241 1 gusting 5 2.8
2019-Dec-04 22:29 255 1 gusting 4 2.8
2019-Dec-04 22:20 242 1 gusting 3 2.8
2019-Dec-04 22:11 236 1 gusting 4 2.8
2019-Dec-04 22:02 234 0 gusting 5 2.8
2019-Dec-04 21:53 247 1 gusting 5 2.8
2019-Dec-04 21:44 241 0 gusting 3 2.8
2019-Dec-04 21:35 241 1 gusting 3 2.8
2019-Dec-04 21:26 236 1 gusting 4 2.8
2019-Dec-04 21:17 225 2 gusting 6 2.8
2019-Dec-04 21:08 247 2 gusting 6 2.8
2019-Dec-04 20:59 229 2 gusting 9 2.8
2019-Dec-04 20:50 233 2 gusting 9 2.8
2019-Dec-04 20:41 228 2 gusting 6 3.3
2019-Dec-04 20:32 246 3 gusting 7 3.3
2019-Dec-04 20:23 240 2 gusting 6 3.3
2019-Dec-04 20:14 242 2 gusting 5 3.3
2019-Dec-04 20:05 231 4 gusting 8 3.3
2019-Dec-04 19:56 244 3 gusting 7 3.3
2019-Dec-04 19:47 241 3 gusting 7 3.3
2019-Dec-04 19:38 254 4 gusting 7 3.3
2019-Dec-04 19:29 253 4 gusting 7 3.3
2019-Dec-04 19:20 253 3 gusting 7 3.3
2019-Dec-04 19:11 251 3 gusting 7 3.3
2019-Dec-04 19:02 262 4 gusting 8 3.3
2019-Dec-04 18:53 263 3 gusting 9 3.3
2019-Dec-04 18:44 260 4 gusting 8 3.3
2019-Dec-04 18:35 260 4 gusting 9 3.3
2019-Dec-04 18:26 258 4 gusting 11 3.3
2019-Dec-04 18:17 252 4 gusting 10 3.3
2019-Dec-04 18:08 257 5 gusting 11 3.3